This is the latest recevied weather packets stored in our database for station/object DL9NEE-10. If no packets are shown the sender has not sent any weather packets the latest 10 day(s).
| Time | Temp. | Humidity | Pressure | Rain* | Wind** | Luminosity | Snow |
|---|---|---|---|---|---|---|---|
| 1777819145 | 33.33° C | 27% | 1012.7 hPa | - | - | - | - |
| 1777818245 | 35° C | 26% | 1012.8 hPa | - | - | - | - |
| 1777817345 | 36.11° C | 26% | 1012.9 hPa | - | - | - | - |
| 1777816445 | 35.56° C | 26% | 1013 hPa | - | - | - | - |
| 1777815544 | 37.22° C | 25% | 1013.3 hPa | - | - | - | - |
| 1777814644 | 37.78° C | 25% | 1013.5 hPa | - | - | - | - |
| 1777813744 | 37.22° C | 25% | 1013.7 hPa | - | - | - | - |
| 1777812844 | 37.22° C | 25% | 1013.9 hPa | - | - | - | - |
| 1777811944 | 37.22° C | 25% | 1014 hPa | - | - | - | - |
| 1777811044 | 36.67° C | 26% | 1014.3 hPa | - | - | - | - |
| 1777810144 | 37.22° C | 25% | 1014.4 hPa | - | - | - | - |
| 1777809243 | 37.78° C | 24% | 1014.7 hPa | - | - | - | - |
| 1777808343 | 48.33° C | 20% | 1015.1 hPa | - | - | - | - |
| 1777807443 | 55° C | 21% | 1015.5 hPa | - | - | - | - |
| 1777806543 | 32.78° C | 30% | 1015.4 hPa | - | - | - | - |
| 1777805643 | 31.67° C | 31% | 1015.6 hPa | - | - | - | - |
| 1777804742 | 33.33° C | 30% | 1015.8 hPa | - | - | - | - |
| 1777803842 | 27.22° C | 34% | 1016 hPa | - | - | - | - |
| 1777802942 | 26.67° C | 33% | 1016.4 hPa | - | - | - | - |
| 1777802042 | 26.11° C | 33% | 1016.5 hPa | - | - | - | - |
| 1777801142 | 25.56° C | 34% | 1016.5 hPa | - | - | - | - |
| 1777800242 | 25° C | 35% | 1016.6 hPa | - | - | - | - |
| 1777799342 | 24.44° C | 36% | 1016.7 hPa | - | - | - | - |
| 1777798441 | 23.89° C | 37% | 1016.7 hPa | - | - | - | - |
| 1777797541 | 22.78° C | 38% | 1016.9 hPa | - | - | - | - |
* Rain since midnight (hover to see other rain measurements)
** Current wind speed in m/s (hover to see current wind gust speed)